Terminal Aerodrome Forecast
Issued by NWS

Home | Current Version | Previous Version | Graphics & Text | Print | Product List | Glossary On
Versions: 1 2 3 4 5 6 7 8 9 10 11 12 13 14
000
FTUS43 KICT 282200 AAA
TAFCNU
TAF AMD
KCNU 282213Z 2822/2918 15008KT P6SM SCT050
     FM290100 16008KT P6SM SCT250
     FM291000 17007KT P6SM VCTS BKN060CB=

USA.gov is the U.S. government's official web portal to all federal, state and local government web resources and services.